Time;durP1;ratioP1;P1;durP2;ratioP2;P2;SDS_P1;SDS_P2;PMS_P1;PMS_P2;Temp;Humidity;BMP_temperature;BMP_pressure;BME280_temperature;BME280_humidity;BME280_pressure;Samples;Min_cycle;Max_cycle;Signal;HPM_P1;HPM_P2
2022/03/28 00:00:55;;;;;;;224.90;22.70;;;6.50;99.90;;;;;;5029257;28;20528;-85
2022/03/28 00:03:21;;;;;;;269.77;27.83;;;6.50;99.90;;;;;;5030067;28;20060;-85
2022/03/28 00:05:47;;;;;;;286.08;24.05;;;6.50;99.90;;;;;;5013406;28;20049;-85
2022/03/28 00:08:13;;;;;;;310.67;25.08;;;7.00;99.90;;;;;;5031044;28;20087;-85
2022/03/28 00:10:39;;;;;;;272.98;27.05;;;6.70;99.90;;;;;;5031822;28;20136;-85
2022/03/28 00:13:05;;;;;;;231.88;24.83;;;6.60;99.90;;;;;;5051575;28;20029;-84
2022/03/28 00:15:30;;;;;;;364.60;27.33;;;6.60;99.90;;;;;;5051561;28;20045;-84
2022/03/28 00:17:56;;;;;;;144.52;20.60;;;6.60;99.90;;;;;;5039984;28;20052;-85
2022/03/28 00:20:23;;;;;;;173.23;25.25;;;6.70;99.90;;;;;;5049177;28;20080;-84
2022/03/28 00:22:49;;;;;;;88.55;14.48;;;6.70;99.90;;;;;;5033589;28;20053;-84
2022/03/28 00:25:14;;;;;;;197.02;25.65;;;6.80;99.90;;;;;;5017199;28;20049;-86
2022/03/28 00:27:40;;;;;;;250.65;27.42;;;6.70;99.90;;;;;;5016923;28;20049;-83
2022/03/28 00:30:06;;;;;;;206.15;26.23;;;6.60;99.90;;;;;;5034158;28;20044;-86
2022/03/28 00:32:32;;;;;;;210.63;27.25;;;6.60;99.90;;;;;;5016792;28;20111;-86
2022/03/28 00:34:58;;;;;;;128.07;26.52;;;7.00;99.90;;;;;;5016238;28;20517;-85
2022/03/28 00:37:24;;;;;;;146.25;25.02;;;6.50;99.90;;;;;;5032883;28;20144;-85
2022/03/28 00:39:50;;;;;;;159.45;25.92;;;6.50;99.90;;;;;;5033993;28;20132;-86
2022/03/28 00:42:15;;;;;;;163.07;26.27;;;6.50;99.90;;;;;;5034220;28;20088;-86
2022/03/28 00:44:41;;;;;;;230.00;28.60;;;7.50;99.90;;;;;;5032834;28;20049;-84
2022/03/28 00:47:07;;;;;;;110.60;25.05;;;6.80;99.90;;;;;;5033712;28;20095;-84
2022/03/28 00:49:33;;;;;;;163.50;26.60;;;6.80;99.90;;;;;;5033313;28;20048;-85
2022/03/28 00:51:58;;;;;;;202.27;33.83;;;6.80;99.90;;;;;;5015408;28;20136;-85
2022/03/28 00:54:24;;;;;;;193.00;32.92;;;6.60;99.90;;;;;;5032391;28;20053;-84
2022/03/28 00:56:50;;;;;;;178.88;31.20;;;6.50;99.90;;;;;;5031930;28;20156;-85
2022/03/28 00:59:17;;;;;;;143.70;28.70;;;6.90;99.90;;;;;;5033498;28;20049;-84
2022/03/28 01:01:45;;;;;;;145.35;30.75;;;6.60;99.90;;;;;;5032085;28;20101;-86
2022/03/28 01:04:11;;;;;;;211.25;31.00;;;6.60;99.90;;;;;;5015768;28;20095;-84
2022/03/28 01:06:37;;;;;;;209.80;34.95;;;6.50;99.90;;;;;;5015639;28;20068;-85
2022/03/28 01:09:03;;;;;;;283.48;36.95;;;7.40;99.90;;;;;;4999645;28;20041;-86
2022/03/28 01:11:29;;;;;;;206.50;34.17;;;6.60;99.90;;;;;;5032523;28;20056;-85
2022/03/28 01:13:55;;;;;;;196.98;33.30;;;6.60;99.90;;;;;;5031996;28;20139;-84
2022/03/28 01:16:20;;;;;;;297.02;37.22;;;6.60;99.90;;;;;;5032244;28;20045;-85
2022/03/28 01:18:47;;;;;;;234.25;32.60;;;6.60;99.90;;;;;;5015471;28;20049;-84
2022/03/28 01:21:13;;;;;;;172.20;35.47;;;6.60;99.90;;;;;;5015989;28;20084;-84
2022/03/28 01:23:39;;;;;;;247.90;36.28;;;6.70;99.90;;;;;;5015112;28;20049;-84
2022/03/28 01:26:05;;;;;;;159.95;33.38;;;6.60;99.90;;;;;;5015279;28;20045;-84
2022/03/28 01:28:32;;;;;;;107.95;27.35;;;6.70;99.90;;;;;;5015191;28;20064;-84
2022/03/28 01:30:58;;;;;;;97.32;29.90;;;6.80;99.90;;;;;;5031101;28;20049;-83
2022/03/28 01:33:24;;;;;;;131.30;28.85;;;6.60;99.90;;;;;;5015514;28;20049;-82
2022/03/28 01:35:52;;;;;;;74.85;29.02;;;7.00;99.90;;;;;;5031629;28;20055;-85
2022/03/28 01:38:19;;;;;;;118.95;32.10;;;6.60;99.90;;;;;;5015124;28;20076;-84
2022/03/28 01:40:54;;;;;;;110.30;32.55;;;6.70;99.90;;;;;;5031598;28;20076;-84
2022/03/28 01:43:20;;;;;;;122.30;34.45;;;6.60;99.90;;;;;;5032708;28;20049;-84
2022/03/28 01:45:46;;;;;;;115.60;32.40;;;6.60;99.90;;;;;;5031630;28;20497;-84
2022/03/28 01:48:12;;;;;;;130.30;33.67;;;6.60;99.90;;;;;;5014978;28;20052;-85
2022/03/28 01:50:38;;;;;;;140.90;35.45;;;6.60;99.90;;;;;;5031461;28;20045;-85
2022/03/28 01:53:04;;;;;;;106.20;30.50;;;6.50;99.90;;;;;;5014566;28;20394;-84
2022/03/28 01:55:30;;;;;;;76.25;25.27;;;6.70;99.90;;;;;;5031435;28;20396;-83
2022/03/28 01:57:56;;;;;;;68.18;24.75;;;6.70;99.90;;;;;;5014320;28;20041;-84
2022/03/28 02:00:23;;;;;;;70.07;25.63;;;7.80;99.90;;;;;;5030817;28;20347;-83
2022/03/28 02:02:49;;;;;;;80.00;25.17;;;6.70;99.90;;;;;;5015006;28;20118;-85
2022/03/28 02:05:15;;;;;;;81.32;25.55;;;7.00;99.90;;;;;;5031877;28;20371;-84
2022/03/28 02:07:46;;;;;;;73.75;25.00;;;6.70;99.90;;;;;;4999701;28;20046;-85
2022/03/28 02:10:14;;;;;;;74.15;25.73;;;6.70;99.90;;;;;;5046074;28;20049;-82
2022/03/28 02:12:40;;;;;;;58.20;25.10;;;6.70;99.90;;;;;;5026302;28;20041;-84
2022/03/28 02:15:06;;;;;;;53.47;23.02;;;6.70;99.90;;;;;;5046905;28;20091;-83
2022/03/28 02:17:33;;;;;;;68.25;23.20;;;6.70;99.90;;;;;;5044325;28;20073;-84
2022/03/28 02:19:59;;;;;;;81.25;28.13;;;6.70;99.90;;;;;;5012198;28;20061;-84
2022/03/28 02:22:24;;;;;;;86.70;29.42;;;6.60;99.90;;;;;;5042305;28;20079;-84
2022/03/28 02:24:51;;;;;;;76.60;27.00;;;6.60;99.90;;;;;;5023550;28;20073;-83
2022/03/28 02:27:16;;;;;;;69.70;25.45;;;7.50;99.90;;;;;;5048309;28;20436;-85
2022/03/28 02:29:42;;;;;;;43.25;18.38;;;6.80;99.90;;;;;;5014817;28;20053;-85
2022/03/28 02:32:08;;;;;;;55.90;22.35;;;6.80;99.90;;;;;;5014735;28;20052;-85
2022/03/28 02:34:34;;;;;;;50.20;18.83;;;6.80;99.90;;;;;;5031484;28;20049;-85
2022/03/28 02:37:00;;;;;;;49.03;22.67;;;6.80;99.90;;;;;;5019233;28;20529;-81
2022/03/28 02:39:26;;;;;;;40.45;21.38;;;6.70;99.90;;;;;;5034746;28;20026;-82
2022/03/28 02:41:52;;;;;;;44.97;20.63;;;6.70;99.90;;;;;;5050416;28;20072;-84
2022/03/28 02:44:18;;;;;;;49.67;21.88;;;6.60;99.90;;;;;;5036141;28;20185;-85
2022/03/28 02:46:45;;;;;;;39.38;20.50;;;6.60;99.90;;;;;;5016038;28;20561;-85
2022/03/28 02:49:11;;;;;;;45.70;22.25;;;6.60;99.90;;;;;;5014054;28;20389;-85
2022/03/28 02:51:37;;;;;;;48.75;21.17;;;6.50;99.90;;;;;;5024289;28;20050;-85
2022/03/28 02:54:03;;;;;;;60.63;23.05;;;6.60;99.90;;;;;;5010372;28;20046;-83
2022/03/28 02:56:28;;;;;;;55.83;22.33;;;6.50;99.90;;;;;;5011194;28;20104;-83
2022/03/28 02:58:54;;;;;;;45.30;20.50;;;6.60;99.90;;;;;;5010564;28;20537;-84
2022/03/28 03:01:19;;;;;;;53.03;22.73;;;7.00;99.90;;;;;;5011174;28;20071;-85
2022/03/28 03:03:45;;;;;;;56.92;22.95;;;6.60;99.90;;;;;;5010248;28;20061;-85
2022/03/28 03:06:11;;;;;;;44.67;21.05;;;6.60;99.90;;;;;;5026881;28;20085;-85
2022/03/28 03:08:36;;;;;;;44.88;22.98;;;6.60;99.90;;;;;;5011682;28;20133;-83
2022/03/28 03:11:02;;;;;;;49.10;23.85;;;6.40;99.90;;;;;;4994429;28;20494;-83
2022/03/28 03:13:28;;;;;;;50.83;23.77;;;6.30;99.90;;;;;;5026591;28;20132;-84
2022/03/28 03:15:53;;;;;;;44.80;22.98;;;6.20;99.90;;;;;;5011741;28;20046;-84
2022/03/28 03:18:19;;;;;;;49.33;23.88;;;6.90;99.90;;;;;;5010416;28;20057;-85
2022/03/28 03:20:45;;;;;;;53.13;22.65;;;6.30;99.90;;;;;;5011974;28;20434;-85
2022/03/28 03:23:11;;;;;;;52.15;23.35;;;6.40;99.90;;;;;;5010028;28;20045;-84
2022/03/28 03:25:36;;;;;;;53.78;25.20;;;6.50;99.90;;;;;;4994540;28;20516;-84
2022/03/28 03:28:03;;;;;;;53.00;24.13;;;6.40;99.90;;;;;;5011510;28;20046;-83
2022/03/28 03:30:29;;;;;;;52.80;23.23;;;6.30;99.90;;;;;;4993712;28;20591;-85
2022/03/28 03:32:55;;;;;;;52.95;21.88;;;6.50;99.90;;;;;;5026739;28;20054;-85
2022/03/28 03:35:21;;;;;;;42.67;20.33;;;6.40;99.90;;;;;;4993609;28;20465;-85
2022/03/28 03:37:46;;;;;;;47.65;21.55;;;6.60;99.90;;;;;;5010355;28;20053;-84
2022/03/28 03:40:12;;;;;;;50.35;22.30;;;6.50;99.90;;;;;;5011126;28;20494;-85
2022/03/28 03:42:38;;;;;;;39.50;19.05;;;7.00;99.90;;;;;;5010199;28;20073;-84
2022/03/28 03:45:05;;;;;;;51.08;22.10;;;6.40;99.90;;;;;;4994066;28;20065;-85
2022/03/28 03:47:31;;;;;;;46.75;22.92;;;6.40;99.90;;;;;;5010894;28;20516;-84
2022/03/28 03:49:57;;;;;;;43.70;22.50;;;6.40;99.90;;;;;;5011569;28;20485;-84
2022/03/28 03:52:22;;;;;;;46.33;21.73;;;6.30;99.90;;;;;;5011009;28;20112;-85
2022/03/28 03:54:49;;;;;;;38.88;20.08;;;6.30;99.90;;;;;;5013641;28;20046;-84
2022/03/28 03:57:15;;;;;;;39.92;20.65;;;6.40;99.90;;;;;;4996661;28;20055;-84
2022/03/28 03:59:41;;;;;;;38.17;18.60;;;7.00;99.90;;;;;;5013650;28;20177;-84
2022/03/28 04:02:06;;;;;;;30.30;17.40;;;6.30;99.90;;;;;;4997315;28;20057;-84
2022/03/28 04:04:32;;;;;;;41.60;18.58;;;6.50;99.90;;;;;;5030040;28;20100;-84
2022/03/28 04:06:58;;;;;;;40.35;19.58;;;6.40;99.90;;;;;;5013466;28;20107;-83
2022/03/28 04:09:23;;;;;;;28.73;16.38;;;6.50;99.90;;;;;;4997319;28;20134;-84
2022/03/28 04:11:49;;;;;;;29.08;16.83;;;6.40;99.90;;;;;;5030523;28;20053;-85
2022/03/28 04:14:15;;;;;;;31.65;18.40;;;6.40;99.90;;;;;;5031023;28;20111;-82
2022/03/28 04:16:41;;;;;;;36.65;18.52;;;6.20;99.90;;;;;;5013515;28;20073;-84
2022/03/28 04:19:07;;;;;;;36.70;18.77;;;6.00;99.90;;;;;;5014100;28;20061;-84
2022/03/28 04:21:33;;;;;;;35.10;15.75;;;6.00;99.90;;;;;;5013128;28;20072;-85
2022/03/28 04:23:58;;;;;;;34.65;15.50;;;6.30;99.90;;;;;;5013450;28;20057;-85
2022/03/28 04:26:24;;;;;;;31.88;15.32;;;6.40;99.90;;;;;;5029882;28;20038;-85
2022/03/28 04:28:50;;;;;;;45.88;17.52;;;6.30;99.90;;;;;;5030298;28;20068;-85
2022/03/28 04:31:16;;;;;;;42.05;17.25;;;6.30;99.90;;;;;;5014445;28;20081;-85
2022/03/28 04:33:41;;;;;;;35.05;14.50;;;6.20;99.90;;;;;;5029300;28;20054;-84
2022/03/28 04:36:07;;;;;;;50.63;17.48;;;6.30;99.90;;;;;;4996285;28;20394;-84
2022/03/28 04:38:34;;;;;;;37.00;16.77;;;6.10;99.90;;;;;;5029330;28;20112;-85
2022/03/28 04:41:01;;;;;;;40.47;15.23;;;6.20;99.90;;;;;;5012934;28;20124;-86
2022/03/28 04:43:26;;;;;;;34.88;14.48;;;6.30;99.90;;;;;;5013351;28;20144;-85
2022/03/28 04:45:52;;;;;;;34.78;14.43;;;6.30;99.90;;;;;;4996613;28;20132;-85
2022/03/28 04:48:18;;;;;;;31.10;8.30;;;6.30;99.90;;;;;;5013852;28;20054;-85
2022/03/28 04:50:43;;;;;;;59.53;14.02;;;6.70;99.90;;;;;;5028715;28;20045;-85
2022/03/28 04:53:09;;;;;;;39.75;13.23;;;6.20;99.90;;;;;;4996388;28;20060;-85
2022/03/28 04:55:35;;;;;;;33.55;12.13;;;6.20;99.90;;;;;;5013712;28;20053;-85
2022/03/28 04:58:01;;;;;;;38.67;11.68;;;6.00;99.90;;;;;;4980729;28;20046;-85
2022/03/28 05:00:26;;;;;;;39.92;12.50;;;6.00;99.90;;;;;;5008056;28;20077;-83
2022/03/28 05:02:52;;;;;;;34.67;9.52;;;6.00;99.90;;;;;;5034298;28;20084;-82
2022/03/28 05:05:18;;;;;;;46.08;13.38;;;6.10;99.90;;;;;;5012831;28;20068;-84
2022/03/28 05:07:44;;;;;;;39.72;8.60;;;6.10;99.90;;;;;;4998660;28;20124;-85
2022/03/28 05:10:09;;;;;;;34.28;11.48;;;6.80;99.90;;;;;;4996854;28;20046;-86
2022/03/28 05:12:35;;;;;;;21.15;7.45;;;6.20;99.90;;;;;;5028508;28;20120;-84
2022/03/28 05:15:01;;;;;;;30.95;10.07;;;6.20;99.90;;;;;;5013580;28;20129;-84
2022/03/28 05:17:28;;;;;;;25.17;9.07;;;6.10;99.90;;;;;;5028681;28;20116;-85
2022/03/28 05:19:54;;;;;;;28.73;9.02;;;6.20;99.90;;;;;;5013699;28;20128;-84
2022/03/28 05:22:20;;;;;;;20.50;8.43;;;6.00;99.90;;;;;;5028141;28;20030;-83
2022/03/28 05:24:55;;;;;;;18.13;7.55;;;6.20;99.90;;;;;;5032209;28;20046;-85
2022/03/28 05:27:20;;;;;;;16.20;6.13;;;6.00;99.90;;;;;;5044579;28;20050;-85
2022/03/28 05:29:47;;;;;;;16.13;7.13;;;5.80;99.90;;;;;;5027309;28;20057;-85
2022/03/28 05:32:12;;;;;;;12.02;5.65;;;5.80;99.90;;;;;;5008078;28;20096;-85
2022/03/28 05:34:38;;;;;;;10.85;4.97;;;5.80;99.90;;;;;;5017340;28;20053;-84
2022/03/28 05:37:05;;;;;;;17.10;6.45;;;5.70;99.90;;;;;;4997541;28;20128;-86
2022/03/28 05:39:32;;;;;;;18.08;6.68;;;5.80;99.90;;;;;;4996000;28;20497;-84
2022/03/28 05:41:58;;;;;;;32.20;9.43;;;5.70;99.90;;;;;;5012379;28;20133;-85
2022/03/28 05:44:24;;;;;;;36.38;11.50;;;5.70;99.90;;;;;;5014377;28;20052;-84
2022/03/28 05:46:50;;;;;;;27.20;9.30;;;5.50;99.90;;;;;;4995901;28;20136;-84
2022/03/28 05:49:16;;;;;;;28.30;10.70;;;5.60;99.90;;;;;;5013113;28;20402;-85
2022/03/28 05:51:42;;;;;;;34.65;12.32;;;5.70;99.90;;;;;;5012706;28;20061;-84
2022/03/28 05:54:07;;;;;;;25.23;9.05;;;5.70;99.90;;;;;;4995592;28;20045;-86
2022/03/28 05:56:33;;;;;;;37.47;12.63;;;5.70;99.90;;;;;;4995728;28;20053;-86
2022/03/28 05:58:59;;;;;;;35.95;12.35;;;5.70;99.90;;;;;;5013862;28;20062;-85
2022/03/28 06:01:25;;;;;;;40.33;13.20;;;5.70;99.90;;;;;;5013546;28;20049;-85
2022/03/28 06:03:50;;;;;;;33.10;11.57;;;5.80;99.90;;;;;;5012528;28;20160;-84
2022/03/28 06:06:16;;;;;;;38.95;14.93;;;6.20;99.90;;;;;;5012011;28;20188;-86
2022/03/28 06:08:42;;;;;;;47.22;17.77;;;5.70;99.90;;;;;;5012514;28;20608;-85
2022/03/28 06:11:07;;;;;;;43.70;17.52;;;5.70;99.90;;;;;;5012806;28;20399;-85
2022/03/28 06:13:33;;;;;;;49.65;16.55;;;5.60;99.90;;;;;;4979364;28;20073;-84
2022/03/28 06:15:59;;;;;;;47.42;17.48;;;5.70;99.90;;;;;;5013262;28;20137;-84
2022/03/28 06:18:25;;;;;;;33.47;11.65;;;5.70;99.90;;;;;;4995741;28;20085;-85
2022/03/28 06:20:51;;;;;;;33.42;13.07;;;5.80;99.90;;;;;;5011020;28;20137;-84
2022/03/28 06:23:17;;;;;;;34.58;14.00;;;5.80;99.90;;;;;;5011429;28;20133;-83
2022/03/28 06:25:42;;;;;;;34.08;12.82;;;6.00;99.90;;;;;;5012521;28;20046;-84
2022/03/28 06:28:09;;;;;;;31.42;11.82;;;5.70;99.90;;;;;;4995395;28;20456;-85
2022/03/28 06:30:35;;;;;;;35.60;14.38;;;5.60;99.90;;;;;;4978408;28;20050;-85
2022/03/28 06:33:00;;;;;;;39.10;12.95;;;5.60;99.90;;;;;;4994544;28;20050;-84
2022/03/28 06:35:27;;;;;;;36.72;12.25;;;5.50;99.90;;;;;;5027004;28;20132;-86
2022/03/28 06:37:53;;;;;;;37.38;12.57;;;5.90;99.90;;;;;;5010202;28;20074;-85
2022/03/28 06:40:19;;;;;;;40.83;13.15;;;5.70;99.90;;;;;;5011896;28;20052;-83
2022/03/28 06:42:45;;;;;;;38.72;12.80;;;5.50;99.90;;;;;;5010290;28;20045;-85
2022/03/28 06:45:11;;;;;;;36.72;12.85;;;6.00;99.90;;;;;;5010520;28;20462;-85
2022/03/28 06:47:37;;;;;;;36.92;13.32;;;5.50;99.90;;;;;;4994013;28;20482;-81
2022/03/28 06:50:07;;;;;;;40.08;13.30;;;5.50;99.90;;;;;;4978123;28;20552;-85
2022/03/28 06:52:33;;;;;;;37.22;12.77;;;5.60;99.90;;;;;;4993968;28;20061;-84
2022/03/28 06:54:59;;;;;;;27.73;9.55;;;5.70;99.90;;;;;;4977768;28;20367;-85
2022/03/28 06:57:25;;;;;;;38.00;12.73;;;6.30;99.90;;;;;;5012070;28;20049;-84
2022/03/28 06:59:50;;;;;;;35.30;13.32;;;5.90;99.90;;;;;;4993980;28;20054;-84
2022/03/28 07:02:16;;;;;;;32.35;10.90;;;6.20;99.90;;;;;;5010185;28;20042;-84
2022/03/28 07:04:42;;;;;;;32.97;14.10;;;6.00;99.90;;;;;;5010744;28;20505;-83
2022/03/28 07:07:11;;;;;;;31.85;12.48;;;5.80;99.90;;;;;;5026902;28;20054;-84
2022/03/28 07:09:36;;;;;;;35.88;13.05;;;5.80;99.90;;;;;;5011314;28;20050;-84
2022/03/28 07:12:05;;;;;;;30.23;12.65;;;5.80;99.90;;;;;;4993666;28;20512;-85
2022/03/28 07:14:30;;;;;;;16.52;6.07;;;6.00;99.90;;;;;;4994081;28;20486;-85
2022/03/28 07:16:56;;;;;;;37.20;12.07;;;6.20;99.90;;;;;;5006785;28;20044;-85
2022/03/28 07:19:22;;;;;;;36.97;13.93;;;6.60;99.90;;;;;;5023493;28;20057;-84
2022/03/28 07:21:48;;;;;;;38.97;13.23;;;6.00;99.90;;;;;;5013865;28;20123;-84
2022/03/28 07:24:15;;;;;;;41.78;15.30;;;6.50;99.90;;;;;;5027216;28;20486;-82
2022/03/28 07:26:44;;;;;;;42.63;14.15;;;6.00;99.90;;;;;;5016217;28;20041;-82
2022/03/28 07:29:10;;;;;;;44.90;16.33;;;6.00;99.90;;;;;;5006595;28;20041;-85
2022/03/28 07:31:39;;;;;;;38.88;15.95;;;6.20;99.90;;;;;;5014371;28;20470;-86
2022/03/28 07:36:54;;;;;;;39.08;15.23;;;6.00;99.90;;;;;;5029549;28;20065;-84
2022/03/28 07:39:20;;;;;;;39.10;18.10;;;6.20;99.90;;;;;;5031883;28;20153;-86
2022/03/28 07:41:46;;;;;;;39.40;17.27;;;6.10;99.90;;;;;;5023328;28;20083;-85
2022/03/28 07:44:13;;;;;;;36.80;16.95;;;6.10;99.90;;;;;;5013499;28;20049;-86
2022/03/28 07:46:39;;;;;;;36.92;18.05;;;6.10;99.90;;;;;;4997626;28;20076;-86
2022/03/28 07:49:04;;;;;;;39.58;18.25;;;6.00;99.90;;;;;;5030307;28;20046;-84
2022/03/28 07:51:30;;;;;;;41.88;18.63;;;6.00;99.90;;;;;;5031605;28;20052;-85
2022/03/28 07:53:56;;;;;;;32.50;18.33;;;6.00;99.90;;;;;;5029144;28;20049;-85
2022/03/28 07:56:22;;;;;;;33.25;17.65;;;6.10;99.90;;;;;;5001111;28;20088;-86
2022/03/28 07:58:47;;;;;;;38.85;17.65;;;6.10;99.90;;;;;;5001342;28;20509;-84
2022/03/28 08:01:13;;;;;;;32.42;16.17;;;7.20;99.90;;;;;;5020485;28;20048;-85
2022/03/28 08:03:39;;;;;;;30.35;15.27;;;6.50;99.90;;;;;;5031442;28;20484;-87
2022/03/28 08:06:05;;;;;;;32.85;17.95;;;6.60;99.90;;;;;;5032989;28;20120;-88
2022/03/28 08:08:32;;;;;;;25.50;13.85;;;6.50;99.90;;;;;;5016181;28;20486;-85
2022/03/28 08:10:58;;;;;;;25.85;13.95;;;6.70;99.90;;;;;;5031161;28;20543;-85
2022/03/28 08:13:25;;;;;;;25.17;13.85;;;6.70;99.90;;;;;;5031285;28;20053;-87
2022/03/28 08:15:50;;;;;;;22.08;12.35;;;6.50;99.90;;;;;;5028945;28;20038;-86
2022/03/28 08:18:16;;;;;;;18.95;10.95;;;6.50;99.90;;;;;;5014666;28;20511;-86
2022/03/28 08:20:43;;;;;;;17.33;9.20;;;6.60;99.90;;;;;;5031099;28;20053;-87
2022/03/28 08:23:09;;;;;;;21.13;12.18;;;6.70;99.90;;;;;;5016265;28;20080;-85
2022/03/28 08:25:34;;;;;;;19.92;12.60;;;6.70;99.90;;;;;;5034698;28;20045;-86
2022/03/28 08:28:00;;;;;;;24.90;13.60;;;6.50;99.90;;;;;;5038064;28;20053;-84
2022/03/28 08:30:26;;;;;;;22.67;13.05;;;7.30;99.90;;;;;;5042114;28;20385;-86
2022/03/28 08:32:51;;;;;;;19.50;12.40;;;6.50;99.90;;;;;;5033976;28;20497;-86
2022/03/28 08:35:17;;;;;;;19.50;12.23;;;6.70;99.90;;;;;;5014874;28;20033;-86
2022/03/28 08:37:43;;;;;;;22.05;13.05;;;7.00;99.90;;;;;;5021760;28;20119;-88
2022/03/28 08:40:09;;;;;;;18.95;12.52;;;6.70;99.90;;;;;;5014254;28;20053;-85
2022/03/28 08:42:35;;;;;;;22.63;13.10;;;6.60;99.90;;;;;;5011089;28;20060;-84
2022/03/28 08:45:01;;;;;;;25.05;13.45;;;6.90;99.90;;;;;;5032859;28;20100;-84
2022/03/28 08:47:26;;;;;;;20.58;12.07;;;7.20;99.90;;;;;;5032582;28;20041;-84
2022/03/28 08:49:53;;;;;;;21.33;13.00;;;7.00;99.90;;;;;;5015988;28;20054;-85
2022/03/28 08:52:20;;;;;;;22.25;12.05;;;6.80;99.90;;;;;;5031674;28;20053;-84
2022/03/28 08:54:46;;;;;;;23.48;13.77;;;7.00;99.90;;;;;;5032143;28;20075;-86
2022/03/28 08:57:13;;;;;;;22.83;13.95;;;7.40;99.90;;;;;;4995778;28;20417;-86
2022/03/28 08:59:39;;;;;;;23.92;14.50;;;6.80;99.90;;;;;;5030186;28;20060;-85
2022/03/28 09:02:04;;;;;;;20.60;13.02;;;6.80;99.90;;;;;;5030175;28;20042;-85
2022/03/28 09:04:30;;;;;;;21.58;13.88;;;6.90;99.90;;;;;;5012742;28;20041;-85
2022/03/28 09:06:57;;;;;;;20.67;13.60;;;6.90;99.90;;;;;;4996659;28;20037;-85
2022/03/28 09:09:31;;;;;;;21.27;12.65;;;6.90;99.90;;;;;;5013947;28;20054;-84
2022/03/28 09:12:08;;;;;;;20.48;12.15;;;7.20;99.90;;;;;;5000022;28;20049;-85
2022/03/28 09:14:35;;;;;;;18.98;11.55;;;7.20;99.90;;;;;;5031424;28;20059;-84
2022/03/28 09:17:04;;;;;;;15.05;10.07;;;7.40;99.90;;;;;;5014616;28;20046;-84
2022/03/28 09:19:47;;;;;;;18.35;11.25;;;7.60;99.90;;;;;;5027885;28;20389;-85
2022/03/28 09:22:19;;;;;;;20.52;12.23;;;7.60;99.90;;;;;;5030277;28;20072;-87
2022/03/28 09:24:45;;;;;;;21.45;13.07;;;7.60;99.90;;;;;;4983126;28;20056;-86
2022/03/28 09:27:31;;;;;;;21.50;13.48;;;7.40;99.90;;;;;;5015436;28;20053;-85
2022/03/28 09:30:07;;;;;;;21.83;14.65;;;7.10;99.90;;;;;;5031893;28;20055;-87
2022/03/28 09:32:34;;;;;;;20.63;12.82;;;7.10;99.90;;;;;;5032014;28;20045;-86
2022/03/28 09:35:10;;;;;;;21.45;14.25;;;7.40;99.90;;;;;;5015483;28;20535;-87
2022/03/28 09:38:08;;;;;;;24.35;15.38;;;7.20;99.90;;;;;;5030803;28;20064;-85
2022/03/28 09:40:45;;;;;;;23.60;14.70;;;7.00;99.90;;;;;;5015597;28;20076;-86
2022/03/28 09:43:25;;;;;;;22.33;14.60;;;7.10;99.90;;;;;;5014242;28;20050;-84
2022/03/28 09:45:55;;;;;;;23.65;14.57;;;7.20;99.90;;;;;;5029805;28;20053;-84
2022/03/28 09:48:22;;;;;;;21.38;13.18;;;7.50;99.90;;;;;;5015982;28;20095;-84
2022/03/28 09:51:05;;;;;;;22.33;14.43;;;7.60;99.90;;;;;;5038659;28;20390;-85
2022/03/28 09:53:37;;;;;;;24.30;13.45;;;7.50;99.90;;;;;;5015838;28;20136;-85
2022/03/28 09:56:08;;;;;;;23.75;14.27;;;7.50;99.90;;;;;;4999285;28;20053;-85
2022/03/28 09:58:58;;;;;;;22.52;13.18;;;7.60;99.90;;;;;;5029286;28;20050;-84
2022/03/28 10:01:39;;;;;;;24.30;14.43;;;7.50;99.90;;;;;;5013784;28;20064;-85
2022/03/28 10:04:07;;;;;;;23.77;14.68;;;7.40;99.90;;;;;;5014358;28;20053;-84
2022/03/28 10:06:37;;;;;;;24.90;15.10;;;7.40;99.90;;;;;;5010901;28;20060;-86
2022/03/28 10:09:04;;;;;;;23.08;14.18;;;7.40;99.90;;;;;;4994672;28;20104;-85
2022/03/28 10:11:30;;;;;;;24.05;14.50;;;7.40;99.90;;;;;;5009943;28;20046;-85
2022/03/28 10:13:55;;;;;;;22.85;13.85;;;7.50;99.90;;;;;;5014137;28;20052;-86
2022/03/28 10:16:21;;;;;;;24.13;14.15;;;7.50;99.90;;;;;;4996649;28;20102;-83
2022/03/28 10:18:49;;;;;;;21.25;13.45;;;7.70;99.90;;;;;;5029044;28;20037;-85
2022/03/28 10:21:30;;;;;;;23.38;13.90;;;7.80;99.90;;;;;;5013257;28;20045;-84
2022/03/28 10:24:07;;;;;;;24.40;14.13;;;7.70;99.90;;;;;;4997844;28;20494;-83
2022/03/28 10:26:34;;;;;;;22.27;14.50;;;8.10;99.90;;;;;;5029324;28;20058;-85
2022/03/28 10:29:14;;;;;;;20.60;13.10;;;8.10;99.90;;;;;;5013459;28;20056;-83
2022/03/28 10:31:55;;;;;;;26.83;13.50;;;8.10;99.90;;;;;;5029557;28;20052;-83
2022/03/28 10:34:40;;;;;;;22.85;13.57;;;8.10;99.90;;;;;;5012734;28;20049;-82
2022/03/28 10:37:43;;;;;;;22.50;14.05;;;8.20;99.90;;;;;;5030770;28;20065;-78
2022/03/28 10:40:22;;;;;;;20.42;13.23;;;8.30;99.90;;;;;;5010619;28;20060;-82
2022/03/28 10:43:07;;;;;;;19.48;13.23;;;8.50;99.90;;;;;;5028669;28;20051;-81
2022/03/28 10:45:49;;;;;;;23.85;13.93;;;8.50;99.90;;;;;;4998234;28;20080;-83
2022/03/28 10:48:16;;;;;;;21.13;13.57;;;8.70;99.90;;;;;;5011364;28;20436;-82
2022/03/28 10:50:49;;;;;;;22.25;13.88;;;9.00;99.90;;;;;;4993089;28;20529;-81
2022/03/28 10:53:19;;;;;;;19.75;12.65;;;9.50;99.90;;;;;;4996327;28;20397;-81
2022/03/28 10:55:48;;;;;;;24.55;14.38;;;9.00;99.90;;;;;;4996724;28;20045;-81
2022/03/28 10:58:21;;;;;;;19.80;13.50;;;9.10;99.90;;;;;;5012939;28;20096;-81
2022/03/28 11:01:05;;;;;;;23.55;14.65;;;9.20;99.90;;;;;;5012339;28;20394;-83
2022/03/28 11:03:35;;;;;;;21.25;13.88;;;9.10;99.90;;;;;;5027857;28;20382;-84
2022/03/28 11:06:01;;;;;;;17.05;12.77;;;9.00;99.90;;;;;;5026578;28;20038;-84
2022/03/28 11:08:38;;;;;;;20.58;12.38;;;9.30;99.90;;;;;;5026651;28;20481;-84
2022/03/28 11:11:13;;;;;;;20.88;14.48;;;9.30;99.90;;;;;;4996603;28;20052;-83
2022/03/28 11:13:39;;;;;;;22.23;14.55;;;9.20;99.90;;;;;;5048618;28;20520;-82
2022/03/28 11:16:05;;;;;;;21.30;14.30;;;9.40;99.90;;;;;;5045541;28;20045;-83
2022/03/28 11:18:30;;;;;;;22.48;14.00;;;9.30;99.90;;;;;;5042594;28;20056;-83
2022/03/28 11:20:56;;;;;;;20.25;13.32;;;9.40;99.90;;;;;;5030710;28;20046;-83
2022/03/28 11:23:22;;;;;;;23.40;13.00;;;9.60;99.90;;;;;;5023967;28;20121;-82
2022/03/28 11:25:52;;;;;;;21.30;12.90;;;9.70;99.90;;;;;;5010539;28;20053;-82
2022/03/28 11:28:22;;;;;;;24.92;14.88;;;10.20;99.90;;;;;;4993596;28;20054;-83
2022/03/28 11:31:03;;;;;;;20.90;14.88;;;9.70;99.90;;;;;;5019905;28;21338;-83
2022/03/28 11:33:34;;;;;;;21.08;13.38;;;9.80;99.90;;;;;;5013970;28;20060;-83
2022/03/28 11:36:03;;;;;;;22.70;13.93;;;10.20;99.90;;;;;;5010792;28;20042;-82
2022/03/28 11:38:36;;;;;;;20.02;13.38;;;10.20;99.90;;;;;;5015682;28;20069;-81
2022/03/28 11:41:02;;;;;;;23.65;15.05;;;10.70;99.90;;;;;;5011164;28;20442;-83
2022/03/28 11:43:30;;;;;;;26.23;15.63;;;10.40;99.90;;;;;;5009266;28;20058;-84
2022/03/28 11:45:55;;;;;;;22.65;14.80;;;10.60;99.90;;;;;;5026058;28;20042;-83
2022/03/28 11:48:21;;;;;;;22.83;14.75;;;10.50;99.90;;;;;;5009952;28;20050;-81
2022/03/28 11:50:47;;;;;;;25.98;15.40;;;10.60;99.90;;;;;;5010277;28;20465;-83
2022/03/28 11:53:17;;;;;;;24.45;15.25;;;10.30;99.90;;;;;;5010959;28;20042;-83
2022/03/28 11:55:47;;;;;;;18.42;13.88;;;10.20;99.90;;;;;;5009108;28;20054;-83
2022/03/28 11:58:16;;;;;;;19.10;15.00;;;10.80;99.90;;;;;;5009336;28;20496;-83
2022/03/28 12:00:51;;;;;;;20.00;14.02;;;10.80;99.90;;;;;;5009226;28;20111;-83
2022/03/28 12:03:17;;;;;;;20.55;14.30;;;10.70;99.90;;;;;;5009042;28;20054;-83
2022/03/28 12:05:43;;;;;;;22.23;14.10;;;10.60;99.90;;;;;;5009343;28;20386;-84
2022/03/28 12:08:12;;;;;;;20.00;14.77;;;10.70;99.90;;;;;;5009666;28;20089;-83
2022/03/28 12:10:38;;;;;;;21.83;14.73;;;11.00;99.90;;;;;;5008776;28;20054;-81
2022/03/28 12:13:05;;;;;;;23.25;15.15;;;10.90;99.90;;;;;;5009497;28;20062;-84
2022/03/28 12:15:33;;;;;;;22.70;15.20;;;10.90;99.90;;;;;;5028252;28;20088;-83
2022/03/28 12:17:59;;;;;;;19.85;15.05;;;10.60;99.90;;;;;;5013140;28;20115;-82
2022/03/28 12:20:31;;;;;;;19.55;15.43;;;10.70;99.90;;;;;;5013463;28;20143;-82
2022/03/28 12:22:56;;;;;;;20.30;14.85;;;10.70;99.90;;;;;;5014425;28;20053;-82
2022/03/28 12:25:27;;;;;;;20.88;15.18;;;10.90;99.90;;;;;;5026463;28;20049;-83
2022/03/28 12:27:57;;;;;;;21.10;14.65;;;10.90;99.90;;;;;;5023659;28;20089;-84
2022/03/28 12:30:35;;;;;;;17.48;13.80;;;10.90;99.90;;;;;;5040587;28;20054;-82
2022/03/28 12:33:17;;;;;;;16.83;13.75;;;11.00;99.90;;;;;;5021580;28;20305;-83
2022/03/28 12:35:49;;;;;;;19.00;13.52;;;11.30;99.90;;;;;;5029704;28;20108;-82
2022/03/28 12:38:17;;;;;;;20.73;14.10;;;11.30;99.90;;;;;;4995601;28;20054;-82
2022/03/28 12:40:44;;;;;;;18.52;13.55;;;11.60;99.90;;;;;;5011909;28;20128;-83